Latest Weather Observations for Cressy

IDT60801

Issued at 7:31 pm EST Friday 31 July 2015 (issued every 30 minutes, with the page automatically refreshed every 10 minutes)

About weather observations | Map of weather stations | Latest weather observations for TAS | Other Formats
Station Details ID: 091306 Name: CRESSY RESEARCH STATION Lat: -41.73 Lon: 147.08 Height: 148.0 m
Data from the previous 72 hours. | See also: Recent months at Cressy
Date/Time
EST
Temp
°C
App
Temp
°C
Dew
Point
Rel
Hum
%
Delta-T
°C
Wind Press
QNH
hPa
Press
MSL
hPa
Rain
since 9 am
mm
Dir
 
Spd
km/h
Gust
km/h
Spd
kts
Gust
kts
31/07:30pm 6.4 -0.4 5.2 92 0.5 NNW 30 39 16 21 - - 0.2
31/07:00pm 6.4 -0.9 4.7 89 0.7 NNW 32 43 17 23 - - 0.0
31/06:30pm 6.5 0.3 4.5 87 0.9 NNW 26 35 14 19 - - 0.0
31/06:00pm 6.8 0.9 4.1 83 1.2 NNW 24 32 13 17 - - 0.0
31/05:30pm 7.0 1.1 3.8 80 1.4 NNW 24 33 13 18 - - 0.0
31/05:00pm 7.7 1.8 3.7 76 1.7 N 24 32 13 17 - - 0.0
31/04:30pm 8.2 1.5 3.9 74 1.9 NNW 28 35 15 19 - - 0.0
31/04:00pm 8.5 1.5 3.9 73 2.0 N 30 39 16 21 - - 0.0
31/03:30pm 9.1 2.1 3.9 70 2.3 NNW 30 39 16 21 - - 0.0
31/03:00pm 8.8 1.3 3.2 68 2.4 NNW 32 43 17 23 - - 0.0
31/02:30pm 8.3 2.3 3.4 71 2.1 NNW 24 32 13 17 - - 0.0
31/02:00pm 8.7 1.9 2.9 67 2.5 NNW 28 41 15 22 - - 0.0
31/01:45pm 9.0 2.1 2.3 63 2.8 NNW 28 46 15 25 - - 0.0
31/01:30pm 9.4 1.7 2.5 62 2.9 NNW 32 39 17 21 - - 0.0
31/01:00pm 9.4 1.3 3.2 65 2.7 NNW 35 44 19 24 - - 0.0
31/12:30pm 8.4 1.4 2.0 64 2.7 NNW 28 37 15 20 - - 0.0
31/12:00pm 9.1 2.1 2.2 62 2.9 NNW 28 35 15 19 - - 0.0
31/11:30am 8.5 1.2 2.3 65 2.6 NNW 30 37 16 20 - - 0.0
31/11:00am 7.9 0.5 2.0 66 2.5 NNW 30 37 16 20 - - 0.0
31/10:30am 7.3 0.7 2.2 70 2.1 NNW 26 32 14 17 - - 0.0
31/10:00am 6.6 1.3 1.9 72 1.9 NNW 19 24 10 13 - - 0.0
31/09:30am 5.6 0.6 1.3 74 1.7 N 17 24 9 13 - - 0.0
31/09:00am 4.2 -1.3 0.4 76 1.5 N 19 24 10 13 - - 5.8
31/08:30am 3.7 -1.9 0.2 78 1.3 NNW 19 24 10 13 - - 5.8
31/08:00am 2.6 -1.9 -0.5 80 1.1 NNE 13 19 7 10 - - 5.8
31/07:30am 1.6 -3.3 -0.6 85 0.8 NNW 15 20 8 11 - - 5.8
31/07:00am 2.2 -3.5 -0.7 81 1.1 NNW 19 22 10 12 - - 5.8
31/06:30am 2.7 -2.3 -0.9 77 1.3 N 15 17 8 9 - - 5.8
31/06:00am 3.5 -1.1 -0.7 74 1.6 NNW 13 20 7 11 - - 5.8
31/05:30am 5.2 0.5 -1.7 61 2.5 NNW 13 20 7 11 - - 5.8
31/05:00am 4.4 -0.9 -0.4 71 1.8 NNW 17 24 9 13 - - 5.8
31/04:30am 4.7 -0.5 0.3 73 1.7 NNW 17 20 9 11 - - 5.8
31/04:00am 5.2 0.7 -0.6 66 2.2 NNW 13 17 7 9 - - 5.8
31/03:30am 5.2 0.6 -1.0 64 2.3 NW 13 19 7 10 - - 5.8
31/03:00am 5.4 0.5 -0.8 64 2.3 NW 15 20 8 11 - - 5.8
31/02:30am 5.8 1.2 -1.3 60 2.7 WNW 13 19 7 10 - - 5.8
31/02:00am 6.1 1.4 -1.5 58 2.8 W 13 20 7 11 - - 5.8
31/01:30am 6.7 1.4 -0.7 59 2.8 W 17 24 9 13 - - 5.8
31/01:00am 7.1 2.5 -1.1 56 3.1 W 13 20 7 11 - - 5.8
31/12:30am 6.7 3.6 -0.1 62 2.7 W 6 11 3 6 - - 5.8
31/12:00am 5.8 2.5 0.0 66 2.2 WNW 7 11 4 6 - - 5.8
 
Date/Time
EST
Temp
°C
App
Temp
°C
Dew
Point
Rel
Hum
%
Delta-T
°C
Wind Press
QNH
hPa
Press
MSL
hPa
Rain
since 9 am
mm
Dir
 
Spd
km/h
Gust
km/h
Spd
kts
Gust
kts
30/11:30pm 7.3 1.2 0.3 61 2.8 NW 22 30 12 16 - - 5.8
30/11:00pm 7.9 3.0 -0.8 54 3.4 NW 15 20 8 11 - - 5.8
30/10:30pm 7.5 3.1 0.5 61 2.8 W 13 22 7 12 - - 5.8
30/10:00pm 8.7 2.4 1.8 62 2.9 W 24 37 13 20 - - 5.8
30/09:30pm 8.0 3.5 6.1 88 0.9 NW 19 24 10 13 - - 5.8
30/09:00pm 8.4 4.4 6.7 89 0.8 NW 17 22 9 12 - - 5.8
30/08:30pm 8.5 3.3 7.3 92 0.6 NNW 24 30 13 16 - - 5.8
30/08:00pm 8.4 4.0 7.6 95 0.4 NW 20 30 11 16 - - 5.8
30/07:30pm 8.2 1.4 7.6 96 0.3 NNW 33 44 18 24 - - 5.2
30/07:00pm 8.1 0.8 7.2 94 0.4 NNW 35 46 19 25 - - 4.4
30/06:30pm 8.0 0.6 6.9 93 0.5 NNW 35 50 19 27 - - 3.6
30/06:00pm 7.8 -0.1 6.4 91 0.6 NNW 37 57 20 31 - - 2.8
30/05:55pm 7.7 -0.2 6.3 91 0.6 NNW 37 57 20 31 - - 2.6
30/05:30pm 7.8 -0.8 6.4 91 0.6 NNW 41 57 22 31 - - 2.4
30/05:00pm 7.9 -0.8 6.2 89 0.8 NNW 41 54 22 29 - - 1.8
30/04:34pm 7.9 -0.4 6.2 89 0.8 NNW 39 57 21 31 - - 1.2
30/04:30pm 7.9 0.0 6.4 90 0.7 NNW 37 50 20 27 - - 1.0
30/04:06pm 7.9 -0.3 6.4 90 0.7 NNW 39 57 21 31 - - 0.6
30/04:00pm 8.0 -1.1 6.1 88 0.9 NNW 43 57 23 31 - - 0.4
30/03:33pm 8.1 -1.2 5.9 86 1.0 NNW 44 69 24 37 - - 0.2
30/03:30pm 8.0 -1.0 6.5 90 0.7 NNW 43 56 23 30 - - 0.2
30/03:22pm 8.2 -1.0 6.3 88 0.9 NNW 44 63 24 34 - - 0.0
30/03:00pm 8.9 -2.0 5.6 80 1.5 NNW 52 65 28 35 - - 0.0
30/02:45pm 9.1 -0.7 5.5 78 1.6 NNW 46 65 25 35 - - 0.0
30/02:30pm 9.4 -1.1 5.6 77 1.7 NNW 50 63 27 34 - - 0.0
30/02:00pm 10.0 -0.6 5.0 71 2.3 NNW 50 70 27 38 - - 0.0
30/01:30pm 10.5 0.3 5.3 70 2.4 NNW 48 67 26 36 - - 0.0
30/01:28pm 10.7 0.5 5.0 68 2.6 NNW 48 67 26 36 - - 0.0
30/01:00pm 10.6 1.2 5.6 71 2.3 NNW 44 57 24 31 - - 0.0
30/12:30pm 10.3 0.5 5.3 71 2.3 NNW 46 63 25 34 - - 0.0
30/12:22pm 10.3 1.8 5.1 70 2.4 NNW 39 61 21 33 - - 0.0
30/12:00pm 10.3 2.3 5.5 72 2.2 NNW 37 52 20 28 - - 0.0
30/11:30am 10.4 2.0 5.6 72 2.2 NNW 39 57 21 31 - - 0.0
30/11:28am 10.4 2.3 5.4 71 2.3 NNW 37 57 20 31 - - 0.0
30/11:00am 10.0 1.6 5.8 75 1.9 NNW 39 48 21 26 - - 0.0
30/10:30am 10.0 2.5 6.3 78 1.7 NNW 35 46 19 25 - - 0.0
30/10:00am 9.3 1.9 6.6 83 1.3 NNW 35 48 19 26 - - 0.0
30/09:30am 8.7 1.7 6.2 84 1.2 N 32 39 17 21 - - 0.0
30/09:00am 8.9 3.1 6.2 83 1.3 N 26 37 14 20 - - 0.2
30/08:30am 8.4 2.1 5.9 84 1.1 N 28 39 15 21 - - 0.2
30/08:00am 8.3 2.0 5.8 84 1.1 N 28 37 15 20 - - 0.2
30/07:30am 8.4 2.1 5.7 83 1.2 NNW 28 39 15 21 - - 0.2
30/07:00am 8.3 2.7 5.6 83 1.2 NNW 24 30 13 16 - - 0.2
30/06:30am 8.4 2.5 6.0 85 1.1 NNW 26 35 14 19 - - 0.2
30/06:00am 8.3 2.1 6.3 87 0.9 NNW 28 37 15 20 - - 0.2
30/05:30am 7.9 1.8 6.5 91 0.6 NNW 28 33 15 18 - - 0.2
30/05:00am 8.3 1.4 6.6 89 0.8 NNW 32 43 17 23 - - 0.0
30/04:30am 8.2 2.8 6.5 89 0.8 N 24 32 13 17 - - 0.0
30/04:00am 8.0 4.0 6.6 91 0.6 N 17 24 9 13 - - 0.0
30/03:30am 7.9 2.2 6.5 91 0.6 NNW 26 30 14 16 - - 0.0
30/03:00am 7.5 2.8 6.1 91 0.6 NNW 20 28 11 15 - - 0.0
30/02:30am 7.3 3.2 6.2 93 0.5 N 17 20 9 11 - - 0.0
30/02:00am 7.5 1.3 6.0 90 0.7 NNW 28 39 15 21 - - 0.0
30/01:30am 7.9 0.6 5.5 85 1.1 NNW 33 43 18 23 - - 0.0
30/01:00am 7.8 1.4 5.1 83 1.2 NNW 28 33 15 18 - - 0.0
30/12:30am 8.2 2.3 6.0 86 1.0 N 26 35 14 19 - - 0.0
30/12:00am 8.3 3.2 5.8 84 1.1 N 22 30 12 16 - - 0.0
 
Date/Time
EST
Temp
°C
App
Temp
°C
Dew
Point
Rel
Hum
%
Delta-T
°C
Wind Press
QNH
hPa
Press
MSL
hPa
Rain
since 9 am
mm
Dir
 
Spd
km/h
Gust
km/h
Spd
kts
Gust
kts
29/11:30pm 8.8 2.6 6.2 84 1.2 NNW 28 37 15 20 - - 0.0
29/11:00pm 9.1 4.2 6.7 85 1.1 NNW 22 33 12 18 - - 0.0
29/10:30pm 9.0 4.5 7.1 88 0.9 NNW 20 30 11 16 - - 0.0
29/10:00pm 8.8 5.3 7.1 89 0.8 N 15 20 8 11 - - 0.0
29/09:30pm 8.9 3.9 6.5 85 1.1 NNW 22 32 12 17 - - 0.0
29/09:00pm 8.6 4.0 6.4 86 1.0 N 20 24 11 13 - - 0.0
29/08:30pm 8.6 4.0 6.7 88 0.9 NNW 20 30 11 16 - - 0.0
29/08:00pm 8.8 4.5 7.1 89 0.8 N 19 26 10 14 - - 0.0
29/07:30pm 8.5 4.2 7.1 91 0.7 N 19 24 10 13 - - 0.0
29/07:00pm 8.3 4.4 6.9 91 0.7 N 17 20 9 11 - - 0.0
29/06:30pm 8.5 4.0 7.0 90 0.7 N 20 26 11 14 - - 0.0
29/06:00pm 8.5 3.6 7.0 90 0.7 N 22 30 12 16 - - 0.0
29/05:30pm 8.8 3.6 7.1 89 0.8 N 24 33 13 18 - - 0.0
29/05:00pm 9.0 4.1 7.1 88 0.9 N 22 30 12 16 - - 0.0
29/04:30pm 9.5 4.3 7.3 86 1.0 N 24 32 13 17 - - 0.0
29/04:00pm 10.5 5.2 6.8 78 1.8 NNW 24 30 13 16 - - 0.0
29/03:30pm 10.6 4.5 6.7 77 1.9 NNW 28 35 15 19 - - 0.0
29/03:00pm 10.8 5.1 6.7 76 1.9 NNW 26 32 14 17 - - 0.0
29/02:30pm 10.8 5.5 6.6 75 2.0 NNW 24 33 13 18 - - 0.0
29/02:00pm 10.8 5.8 6.6 75 2.0 NNW 22 28 12 15 - - 0.0
29/01:30pm 10.6 4.8 6.4 75 2.0 NNW 26 32 14 17 - - 0.0
29/01:00pm 10.9 4.8 6.8 76 2.0 NNW 28 37 15 20 - - 0.0
29/12:30pm 10.9 5.2 6.8 76 2.0 NW 26 35 14 19 - - 0.0
29/12:00pm 10.2 5.2 6.5 78 1.7 NW 22 28 12 15 - - 0.0
29/11:30am 9.6 5.3 6.9 83 1.3 NNW 19 26 10 14 - - 0.0
29/11:00am 9.1 4.0 6.2 82 1.3 NW 22 30 12 16 - - 0.0
29/10:30am 7.3 6.0 6.1 92 0.5 W 2 9 1 5 - - 0.0
29/10:00am 5.5 3.0 4.5 93 0.4 WNW 7 11 4 6 - - 0.0
29/09:30am 5.1 2.3 5.0 99 0.0 WNW 9 13 5 7 - - 0.0
29/09:00am 4.7 2.4 4.7 100 0.0 NNW 6 11 3 6 - - 0.2
29/08:30am 4.3 1.3 4.3 100 0.0 NNW 9 11 5 6 - - 0.2
29/08:00am 3.9 1.2 3.9 100 0.0 WNW 7 9 4 5 - - 0.2
29/07:30am 2.9 0.2 2.9 100 0.0 NNW 6 7 3 4 - - 0.2
29/07:00am 2.7 -0.2 2.7 100 0.0 NNW 7 9 4 5 - - 0.2
29/06:30am 2.8 1.2 2.7 99 0.0 CALM 0 0 0 0 - - 0.2
29/06:00am 3.0 0.4 3.0 100 0.0 NNE 6 6 3 3 - - 0.0
29/05:30am 2.9 1.4 2.9 100 0.0 CALM 0 0 0 0 - - 0.0
29/05:00am 2.7 1.1 2.6 99 0.0 CALM 0 0 0 0 - - 0.0
29/04:30am 2.4 0.8 2.3 99 0.0 CALM 0 0 0 0 - - 0.0
29/04:00am 2.0 -0.1 1.9 99 0.0 SSE 2 7 1 4 - - 0.0
29/03:30am 0.9 -1.0 0.8 99 0.0 CALM 0 0 0 0 - - 0.0
29/03:00am 0.9 -2.1 0.6 98 0.1 SSW 6 9 3 5 - - 0.0
29/02:30am 1.0 -2.0 0.7 98 0.1 SSW 6 9 3 5 - - 0.0
29/02:00am 0.6 -2.5 0.0 96 0.2 SSE 6 7 3 4 - - 0.0
29/01:30am 1.8 0.0 1.2 96 0.2 CALM 0 0 0 0 - - 0.0
29/01:00am 3.1 -0.2 2.4 95 0.3 N 9 11 5 6 - - 0.0
29/12:30am 3.8 0.9 2.5 91 0.5 N 7 11 4 6 - - 0.0
29/12:00am 4.5 1.0 3.6 94 0.4 N 11 15 6 8 - - 0.0
 
Date/Time
EST
Temp
°C
App
Temp
°C
Dew
Point
Rel
Hum
%
Delta-T
°C
Wind Press
QNH
hPa
Press
MSL
hPa
Rain
since 9 am
mm
Dir
 
Spd
km/h
Gust
km/h
Spd
kts
Gust
kts
28/11:30pm 4.5 1.9 3.3 92 0.5 NE 6 7 3 4 - - 0.0
28/11:00pm 5.6 2.6 4.2 91 0.6 NNE 9 11 5 6 - - 0.0
28/10:30pm 6.0 3.0 4.2 88 0.8 NE 9 11 5 6 - - 0.0
28/10:00pm 6.4 3.9 4.6 88 0.8 SSE 7 11 4 6 - - 0.0
28/09:30pm 7.2 4.7 4.9 85 1.0 WNW 7 15 4 8 - - 0.0
28/09:00pm 7.7 4.5 5.3 85 1.1 N 11 17 6 9 - - 0.0
28/08:30pm 7.7 4.2 5.3 85 1.1 NNW 13 19 7 10 - - 0.0
28/08:00pm 8.1 4.7 5.7 85 1.1 NNW 13 20 7 11 - - 0.0

Other Formats:

Comma delimited format used in spreadsheet applications
http://www.bom.gov.au/fwo/IDT60801/IDT60801.95969.axf

JavaScript Object Notation format (JSON) in row-major order
http://www.bom.gov.au/fwo/IDT60801/IDT60801.95969.json